Time;durP1;ratioP1;P1;durP2;ratioP2;P2;SDS_P1;SDS_P2;PMS_P1;PMS_P2;Temp;Humidity;BMP_temperature;BMP_pressure;BME280_temperature;BME280_humidity;BME280_pressure;Samples;Min_cycle;Max_cycle;Signal;HPM_P1;HPM_P2
2022/09/16 00:21:20;;;;;;;1.77;1.67;;;;;;;16.14;100.00;98622.31;5514104;23;20786;-89
2022/09/16 00:23:47;;;;;;;1.70;1.60;;;;;;;16.26;100.00;98611.16;4910641;29;20232;-87
2022/09/16 00:41:08;;;;;;;3.67;2.00;;;;;;;16.00;100.00;98623.25;5226426;23;20237;-88
2022/09/16 00:46:44;;;;;;;2.83;1.77;;;;;;;15.91;100.00;98617.59;5675036;23;20246;-89
2022/09/16 00:49:18;;;;;;;3.73;2.00;;;;;;;15.77;100.00;98620.09;4923143;29;20264;-90
2022/09/16 00:51:46;;;;;;;2.10;1.90;;;;;;;15.84;100.00;98625.19;4924666;29;20228;-90
2022/09/16 00:54:14;;;;;;;2.13;1.90;;;;;;;15.95;100.00;98634.88;4923837;29;20252;-90
2022/09/16 00:56:44;;;;;;;2.80;2.10;;;;;;;15.88;100.00;98639.75;4909090;29;20764;-90
2022/09/16 00:59:16;;;;;;;2.67;2.00;;;;;;;15.92;100.00;98634.59;4908794;29;20243;-91
2022/09/16 01:01:44;;;;;;;2.27;2.00;;;;;;;15.92;100.00;98623.78;4924218;29;20696;-92
2022/09/16 01:04:19;;;;;;;2.70;1.90;;;;;;;15.77;100.00;98622.78;4906037;29;20305;-93
2022/09/16 01:06:47;;;;;;;2.10;1.90;;;;;;;15.91;100.00;98616.81;4919462;29;20232;-92
2022/09/16 01:09:14;;;;;;;2.33;2.17;;;;;;;15.91;100.00;98624.91;4904755;29;20232;-92
2022/09/16 01:11:41;;;;;;;2.50;2.30;;;;;;;15.79;100.00;98615.22;4926408;29;20245;-91
2022/09/16 01:17:14;;;;;;;2.33;2.03;;;;;;;15.79;100.00;98606.31;4926425;29;20243;-92
2022/09/16 01:20:03;;;;;;;2.40;2.03;;;;;;;15.84;100.00;98612.50;4923919;29;20232;-90
2022/09/16 01:22:41;;;;;;;2.73;2.07;;;;;;;15.86;100.00;98596.81;4923439;29;20236;-90
2022/09/16 02:01:08;;;;;;;3.10;2.80;;;;;;;15.59;100.00;98582.09;5244057;23;20240;-89
2022/09/16 02:03:38;;;;;;;2.77;2.57;;;;;;;15.79;100.00;98579.31;4932757;29;20241;-88
2022/09/16 02:20:39;;;;;;;2.60;2.40;;;;;;;15.51;100.00;98564.59;5545638;23;20233;-89
2022/09/16 02:26:23;;;;;;;4.60;2.70;;;;;;;15.56;100.00;98569.97;5159177;23;20241;-90
2022/09/16 02:28:52;;;;;;;2.60;2.40;;;;;;;15.66;100.00;98574.53;4930855;29;20236;-89
2022/09/16 02:37:12;;;;;;;3.10;2.40;;;;;;;15.62;100.00;98582.38;5297520;23;20239;-89
2022/09/16 02:39:41;;;;;;;2.97;2.50;;;;;;;15.56;100.00;98590.75;4958055;28;20260;-90
2022/09/16 02:42:07;;;;;;;2.97;2.40;;;;;;;15.47;100.00;98581.59;4924055;29;20247;-91
2022/09/16 02:44:34;;;;;;;2.60;2.40;;;;;;;15.43;100.00;98581.34;4938820;29;20236;-91
2022/09/16 02:47:24;;;;;;;3.17;2.40;;;;;;;15.34;100.00;98585.69;4926425;29;20247;-91
2022/09/16 02:50:04;;;;;;;3.57;2.63;;;;;;;15.55;100.00;98583.75;4921094;29;20346;-88
2022/09/16 03:07:18;;;;;;;2.70;2.50;;;;;;;15.41;100.00;98565.41;5923005;23;20255;-86
2022/09/16 03:09:46;;;;;;;2.97;2.60;;;;;;;15.37;100.00;98577.03;4945183;28;20316;-89
2022/09/16 03:12:24;;;;;;;2.37;2.23;;;;;;;15.35;100.00;98579.22;4944468;28;20319;-89
2022/09/16 03:40:21;;;;;;;3.30;3.00;;;;;;;14.97;100.00;98603.06;5494343;23;20241;-88
2022/09/16 03:42:48;;;;;;;3.30;3.03;;;;;;;15.06;100.00;98599.81;4925576;29;20233;-87
2022/09/16 03:45:17;;;;;;;3.50;2.97;;;;;;;14.99;100.00;98600.91;4921214;29;20230;-89
2022/09/16 03:47:45;;;;;;;3.40;3.10;;;;;;;14.97;100.00;98600.38;4890838;29;20268;-88
2022/09/16 03:50:13;;;;;;;3.30;2.93;;;;;;;14.93;100.00;98607.38;4901306;29;20243;-88
2022/09/16 03:52:40;;;;;;;4.10;3.33;;;;;;;14.89;100.00;98609.00;4920436;29;20237;-88
2022/09/16 03:55:08;;;;;;;3.27;3.00;;;;;;;14.76;100.00;98603.34;4913997;29;20237;-89
2022/09/16 03:57:36;;;;;;;3.37;3.07;;;;;;;14.65;100.00;98604.47;4912989;29;20237;-89
2022/09/16 04:00:04;;;;;;;3.40;3.10;;;;;;;14.64;100.00;98600.94;4924804;29;20240;-88
2022/09/16 04:02:37;;;;;;;3.20;2.90;;;;;;;14.83;100.00;98602.03;4927119;29;20260;-87
2022/09/16 04:14:31;;;;;;;3.50;3.20;;;;;;;14.46;100.00;98578.03;5751878;23;20287;-88
2022/09/16 04:16:57;;;;;;;5.50;3.23;;;;;;;14.33;100.00;98578.53;4957824;29;20233;-89
2022/09/16 04:19:24;;;;;;;4.23;3.40;;;;;;;14.29;100.00;98572.06;4922685;29;20244;-88
2022/09/16 05:30:19;;;;;;;5.13;3.80;;;;;;;14.67;100.00;98578.84;5961075;23;20282;-88
2022/09/16 05:32:54;;;;;;;4.80;3.70;;;;;;;14.70;100.00;98574.78;4940099;29;20238;-88
2022/09/16 05:35:20;;;;;;;4.13;3.73;;;;;;;14.63;100.00;98576.94;4919613;29;20235;-89
2022/09/16 05:37:48;;;;;;;4.73;4.10;;;;;;;14.74;100.00;98579.38;4912310;29;20241;-88
2022/09/16 05:40:15;;;;;;;6.10;4.40;;;;;;;14.75;100.00;98583.66;4903529;29;20240;-88
2022/09/16 05:42:42;;;;;;;4.40;4.10;;;;;;;14.95;100.00;98577.44;4931707;29;20636;-86
2022/09/16 05:45:11;;;;;;;4.50;4.10;;;;;;;15.01;100.00;98576.34;4915955;29;20263;-88
2022/09/16 05:48:02;;;;;;;4.50;3.87;;;;;;;15.03;100.00;98584.16;5330751;23;20747;-88
2022/09/16 05:50:28;;;;;;;4.60;4.20;;;;;;;15.01;100.00;98589.03;4954253;29;20248;-89
2022/09/16 05:52:55;;;;;;;4.57;4.00;;;;;;;15.07;100.00;98591.44;4913078;29;20229;-90
2022/09/16 05:55:22;;;;;;;4.23;3.77;;;;;;;15.10;100.00;98590.91;4935906;29;20242;-89
2022/09/16 05:57:48;;;;;;;4.20;3.33;;;;;;;15.12;100.00;98590.59;4899635;29;20233;-90
2022/09/16 06:00:15;;;;;;;4.10;3.67;;;;;;;15.18;100.00;98592.22;4915990;29;20245;-90
2022/09/16 06:02:42;;;;;;;4.20;3.80;;;;;;;15.35;100.00;98590.03;4923532;29;20213;-90
2022/09/16 06:05:09;;;;;;;5.50;3.70;;;;;;;15.46;100.00;98579.97;4908274;29;20757;-91
2022/09/16 06:07:36;;;;;;;4.53;3.60;;;;;;;15.44;100.00;98583.75;4900613;29;20229;-90
2022/09/16 06:10:03;;;;;;;6.30;3.73;;;;;;;15.59;100.00;98582.09;4923124;29;20225;-90
2022/09/16 06:12:30;;;;;;;3.90;3.60;;;;;;;15.50;100.00;98572.94;4922898;29;20232;-90
2022/09/16 06:14:57;;;;;;;4.33;3.80;;;;;;;15.64;100.00;98580.19;4907217;29;20233;-90
2022/09/16 06:17:23;;;;;;;4.30;3.97;;;;;;;15.67;100.00;98579.66;4904978;29;20308;-90
2022/09/16 06:19:52;;;;;;;5.87;4.20;;;;;;;15.72;100.00;98571.50;4920521;29;20239;-90
2022/09/16 06:22:19;;;;;;;6.17;4.10;;;;;;;15.67;100.00;98571.56;4908581;29;20312;-89
2022/09/16 06:24:46;;;;;;;5.60;4.03;;;;;;;15.79;100.00;98569.31;4902552;29;20237;-90
2022/09/16 06:27:13;;;;;;;4.00;3.60;;;;;;;15.85;100.00;98584.41;4923088;29;20725;-90
2022/09/16 06:29:39;;;;;;;3.90;3.60;;;;;;;16.03;100.00;98582.16;4902054;29;20237;-91
2022/09/16 06:32:06;;;;;;;5.40;3.80;;;;;;;16.17;100.00;98585.84;4899241;29;20232;-90
2022/09/16 06:34:33;;;;;;;3.70;3.40;;;;;;;16.25;100.00;98585.22;4905928;29;20231;-90
2022/09/16 06:36:59;;;;;;;4.83;3.60;;;;;;;16.27;100.00;98591.16;4921072;29;21082;-90
2022/09/16 06:39:26;;;;;;;4.40;3.60;;;;;;;16.34;100.00;98583.53;4905737;29;20727;-91
2022/09/16 06:41:53;;;;;;;4.43;4.00;;;;;;;16.24;100.00;98583.59;4918646;29;20239;-90
2022/09/16 06:44:28;;;;;;;5.30;4.10;;;;;;;16.29;100.00;98592.50;4908802;29;20259;-89
2022/09/16 06:46:55;;;;;;;6.27;4.03;;;;;;;16.38;100.00;98584.59;4933364;29;20697;-89
2022/09/16 06:49:21;;;;;;;4.40;3.53;;;;;;;16.33;100.00;98589.25;4904762;29;20237;-90
2022/09/16 06:51:50;;;;;;;4.30;3.63;;;;;;;16.55;100.00;98593.13;4913090;29;20297;-90
2022/09/16 06:54:17;;;;;;;4.03;3.60;;;;;;;16.64;100.00;98596.03;4917674;29;20488;-90
2022/09/16 06:56:43;;;;;;;4.23;3.77;;;;;;;16.86;100.00;98601.78;4907565;29;20229;-90
2022/09/16 06:59:13;;;;;;;3.97;3.57;;;;;;;16.88;100.00;98610.44;4907395;29;20244;-90
2022/09/16 07:01:40;;;;;;;4.40;4.00;;;;;;;17.00;100.00;98615.44;4908122;29;20237;-90
2022/09/16 07:04:09;;;;;;;7.47;3.90;;;;;;;17.33;100.00;98617.28;4905596;29;20244;-90
2022/09/16 07:06:36;;;;;;;4.17;3.60;;;;;;;17.32;100.00;98625.66;4924590;29;20247;-96
2022/09/16 07:09:23;;;;;;;4.70;3.60;;;;;;;17.44;100.00;98624.19;4916476;29;20232;-94
2022/09/16 07:11:50;;;;;;;5.17;3.30;;;;;;;17.63;100.00;98626.97;4910277;29;20244;-95
2022/09/16 07:14:17;;;;;;;4.27;3.87;;;;;;;17.32;100.00;98626.47;4904705;29;20257;-95
2022/09/16 07:16:43;;;;;;;4.10;3.80;;;;;;;17.48;100.00;98627.94;4914197;29;20228;-96
2022/09/16 07:19:10;;;;;;;6.17;3.57;;;;;;;17.60;100.00;98624.84;4906853;29;20225;-93
2022/09/16 07:21:37;;;;;;;6.70;3.70;;;;;;;17.42;100.00;98626.38;4924491;29;20241;-96
2022/09/16 07:24:03;;;;;;;4.93;4.00;;;;;;;17.39;100.00;98628.84;4940964;29;20260;-95
2022/09/16 07:26:33;;;;;;;6.50;3.60;;;;;;;17.27;100.00;98631.13;4921154;29;20230;-95
2022/09/16 07:29:02;;;;;;;3.80;3.50;;;;;;;17.17;100.00;98627.44;4924272;29;20229;-95
2022/09/16 07:31:32;;;;;;;4.27;3.40;;;;;;;17.08;100.00;98623.75;4918997;29;20234;-95
2022/09/16 07:34:02;;;;;;;5.47;3.70;;;;;;;16.98;100.00;98615.72;4901681;29;20753;-95
2022/09/16 07:36:58;;;;;;;3.80;3.40;;;;;;;16.96;100.00;98615.22;4897568;29;20233;-95
2022/09/16 07:39:25;;;;;;;3.80;3.47;;;;;;;16.98;100.00;98620.34;4932849;29;20221;-94
2022/09/16 07:41:52;;;;;;;4.83;3.60;;;;;;;16.89;100.00;98620.13;4907481;29;20237;-95
2022/09/16 07:44:19;;;;;;;5.30;3.43;;;;;;;16.94;100.00;98611.97;4901878;29;20328;-95
2022/09/16 07:46:47;;;;;;;4.67;3.40;;;;;;;17.01;100.00;98612.47;4899488;29;20245;-95
2022/09/16 07:49:14;;;;;;;5.07;3.30;;;;;;;17.16;100.00;98627.75;4898155;29;20748;-95
2022/09/16 07:51:41;;;;;;;4.00;3.60;;;;;;;17.25;100.00;98631.44;4898120;29;20252;-95
2022/09/16 07:54:10;;;;;;;3.87;3.20;;;;;;;17.43;100.00;98616.34;4905650;29;20237;-95
2022/09/16 07:56:38;;;;;;;4.77;3.23;;;;;;;17.57;100.00;98620.78;4903869;29;20259;-96
2022/09/16 07:59:07;;;;;;;3.47;3.17;;;;;;;17.71;100.00;98617.41;4902212;29;20236;-95
2022/09/16 08:01:33;;;;;;;4.40;3.17;;;;;;;17.78;100.00;98624.06;4902834;29;20237;-95
2022/09/16 08:04:05;;;;;;;4.73;3.17;;;;;;;17.62;100.00;98628.06;4910062;29;20232;-95
2022/09/16 08:06:32;;;;;;;3.97;3.50;;;;;;;17.75;100.00;98631.97;4906387;29;20221;-95
2022/09/16 08:09:00;;;;;;;5.23;3.23;;;;;;;17.60;100.00;98624.84;4925581;29;20220;-94
2022/09/16 08:11:47;;;;;;;4.60;3.33;;;;;;;17.92;100.00;98616.84;4920753;29;20237;-96
2022/09/16 08:14:13;;;;;;;4.00;3.10;;;;;;;18.05;100.00;98631.59;4917174;29;20328;-95
2022/09/16 08:16:40;;;;;;;3.77;3.23;;;;;;;18.31;100.00;98632.00;4903157;29;20681;-95
2022/09/16 08:19:08;;;;;;;4.67;3.30;;;;;;;18.73;96.44;98631.94;4906062;29;20246;-95
2022/09/16 08:21:34;;;;;;;3.60;3.00;;;;;;;19.23;88.57;98618.56;4905927;29;20230;-95
2022/09/16 08:24:01;;;;;;;4.87;2.83;;;;;;;19.61;81.95;98614.56;4904846;29;20248;-96
2022/09/16 08:26:28;;;;;;;3.23;2.83;;;;;;;20.06;80.76;98618.22;4909292;29;20230;-95
2022/09/16 08:28:54;;;;;;;4.00;2.83;;;;;;;20.52;76.13;98622.66;4913673;29;20243;-96
2022/09/16 08:31:35;;;;;;;4.90;2.73;;;;;;;20.70;71.48;98623.59;4904367;29;20253;-96
2022/09/16 08:34:04;;;;;;;4.13;2.97;;;;;;;20.94;69.89;98619.44;4907541;29;20257;-96
2022/09/16 08:36:32;;;;;;;3.27;2.23;;;;;;;21.10;68.46;98611.66;4898172;29;20238;-95
2022/09/16 08:38:59;;;;;;;3.13;2.83;;;;;;;21.14;66.52;98609.94;4903022;29;20244;-95
2022/09/16 08:42:08;;;;;;;3.13;2.63;;;;;;;21.08;64.25;98617.44;4920957;29;20238;-95
2022/09/16 08:44:44;;;;;;;3.30;2.40;;;;;;;21.18;62.91;98619.13;4907999;29;20746;-96
2022/09/16 08:47:50;;;;;;;2.70;2.50;;;;;;;21.19;63.95;98620.69;4922368;29;20751;-96
2022/09/16 08:50:23;;;;;;;4.23;2.33;;;;;;;21.22;64.77;98614.66;4920811;29;20246;-95
2022/09/16 08:52:51;;;;;;;2.60;2.40;;;;;;;21.28;62.09;98607.13;4890361;29;20238;-95
2022/09/16 08:55:30;;;;;;;2.50;2.30;;;;;;;21.30;63.79;98600.25;4905787;29;20240;-96
2022/09/16 08:58:00;;;;;;;3.87;2.47;;;;;;;21.36;60.77;98603.66;4905730;29;20245;-94
2022/09/16 09:00:27;;;;;;;6.93;2.70;;;;;;;21.36;60.62;98611.81;4939418;29;20246;-93
2022/09/16 09:03:32;;;;;;;3.57;2.57;;;;;;;21.01;61.96;98605.38;4908583;29;20257;-96
2022/09/16 09:05:59;;;;;;;3.37;2.50;;;;;;;21.12;64.41;98611.34;4943204;29;20312;-95
2022/09/16 09:08:49;;;;;;;2.93;2.37;;;;;;;21.05;63.02;98604.44;4907275;29;20700;-94
2022/09/16 09:11:25;;;;;;;2.87;2.50;;;;;;;21.00;61.80;98612.72;4915788;29;20323;-95
2022/09/16 09:14:09;;;;;;;2.60;2.40;;;;;;;20.99;60.36;98613.88;4932137;29;20239;-95
2022/09/16 09:17:01;;;;;;;2.93;2.33;;;;;;;20.84;60.51;98614.25;4936988;29;20263;-95
2022/09/16 09:19:27;;;;;;;2.83;2.30;;;;;;;20.89;61.66;98610.59;4904791;29;20268;-94
2022/09/16 09:21:57;;;;;;;2.87;2.23;;;;;;;20.97;62.33;98610.63;4936938;29;20226;-95
2022/09/16 09:24:32;;;;;;;3.20;2.37;;;;;;;21.16;62.53;98599.56;4932279;29;20239;-91
2022/09/16 09:27:08;;;;;;;2.33;2.13;;;;;;;21.37;61.33;98605.25;4931103;29;20254;-90
2022/09/16 09:29:42;;;;;;;3.73;2.27;;;;;;;21.41;61.22;98601.59;4904810;29;20320;-90
2022/09/16 09:32:24;;;;;;;4.83;2.83;;;;;;;21.62;59.23;98592.81;4935603;29;20234;-90
2022/09/16 09:35:15;;;;;;;4.80;2.67;;;;;;;21.82;59.71;98587.59;4909219;29;20247;-92
2022/09/16 09:38:04;;;;;;;2.60;2.40;;;;;;;22.03;58.09;98590.53;4930412;28;20314;-92
2022/09/16 09:40:44;;;;;;;2.80;2.60;;;;;;;22.22;57.01;98579.31;4907267;29;20233;-90
2022/09/16 09:43:18;;;;;;;3.65;2.50;;;;;;;22.63;56.26;98578.81;4912818;29;20233;-90
2022/09/16 09:46:07;;;;;;;2.58;2.10;;;;;;;22.91;55.10;98577.31;4919715;29;21048;-89
2022/09/16 09:48:39;;;;;;;3.67;2.40;;;;;;;22.86;53.63;98577.53;4913768;29;20232;-89
2022/09/16 09:51:24;;;;;;;2.80;2.60;;;;;;;22.66;54.54;98581.69;4899925;29;20327;-88
2022/09/16 09:53:55;;;;;;;3.28;2.67;;;;;;;22.68;54.08;98578.63;4910716;29;20281;-89
2022/09/16 09:56:34;;;;;;;3.78;2.50;;;;;;;22.82;52.31;98571.88;4888430;29;20285;-89
2022/09/16 09:59:19;;;;;;;2.75;2.55;;;;;;;22.73;53.43;98573.81;4914688;29;20260;-89
2022/09/16 10:01:52;;;;;;;3.78;2.42;;;;;;;22.55;53.26;98579.59;4934319;29;20271;-89
2022/09/16 10:04:19;;;;;;;2.47;2.28;;;;;;;22.70;53.17;98582.69;4922513;29;20240;-89
2022/09/16 10:06:47;;;;;;;2.88;2.53;;;;;;;22.52;53.17;98572.88;4907453;29;20606;-89
2022/09/16 10:09:15;;;;;;;3.50;2.60;;;;;;;22.81;51.46;98577.69;4907331;29;20229;-90
2022/09/16 10:11:56;;;;;;;3.03;2.63;;;;;;;22.93;51.79;98580.53;4922799;29;20229;-90
2022/09/16 10:14:30;;;;;;;2.60;2.40;;;;;;;22.82;53.26;98585.53;4922720;29;20256;-89
2022/09/16 10:17:01;;;;;;;4.38;2.60;;;;;;;22.98;53.35;98582.28;4904382;29;20243;-89
2022/09/16 10:19:30;;;;;;;3.05;2.50;;;;;;;23.02;52.94;98588.69;4918130;29;20765;-88
2022/09/16 10:22:21;;;;;;;4.03;2.70;;;;;;;22.96;53.34;98590.00;4920884;29;20245;-89
2022/09/16 10:24:54;;;;;;;2.50;2.30;;;;;;;22.92;51.55;98578.13;4921053;29;20756;-89
2022/09/16 10:27:31;;;;;;;2.58;2.38;;;;;;;22.69;52.81;98580.22;4919754;29;20261;-90
2022/09/16 10:30:16;;;;;;;3.08;2.55;;;;;;;22.63;53.33;98582.31;4923253;29;20228;-87
2022/09/16 10:33:00;;;;;;;4.10;2.58;;;;;;;22.16;53.15;98578.66;4920260;29;20240;-90
2022/09/16 10:35:29;;;;;;;2.60;2.40;;;;;;;21.95;52.84;98572.25;4906847;29;20296;-89
2022/09/16 10:38:00;;;;;;;2.90;2.70;;;;;;;21.76;54.24;98569.78;4921249;29;20236;-90
2022/09/16 10:40:27;;;;;;;2.53;2.33;;;;;;;21.83;54.75;98564.66;4906676;29;20252;-90
2022/09/16 10:43:01;;;;;;;3.63;2.43;;;;;;;21.43;54.10;98563.91;4915991;29;20237;-90
2022/09/16 10:45:30;;;;;;;4.17;2.90;;;;;;;21.52;53.85;98566.66;4919756;29;20236;-90
2022/09/16 10:47:59;;;;;;;3.23;2.70;;;;;;;21.80;54.17;98575.38;4905718;29;20722;-90
2022/09/16 10:50:32;;;;;;;3.30;2.90;;;;;;;21.96;55.06;98565.66;4923889;29;20242;-90
2022/09/16 10:52:58;;;;;;;3.03;2.60;;;;;;;22.02;56.60;98566.31;4922729;29;20235;-89
2022/09/16 10:55:28;;;;;;;2.72;2.47;;;;;;;21.93;57.91;98569.81;4906670;29;20238;-89
2022/09/16 10:58:12;;;;;;;3.40;2.60;;;;;;;21.67;54.38;98558.06;4919333;29;20242;-89
2022/09/16 11:00:56;;;;;;;3.23;2.70;;;;;;;21.74;53.34;98554.88;4924683;29;20235;-90
2022/09/16 11:03:48;;;;;;;3.87;2.90;;;;;;;21.81;53.34;98555.19;4912510;29;20232;-90
2022/09/16 11:06:41;;;;;;;4.30;2.83;;;;;;;21.20;56.05;98553.41;4917421;29;20259;-90
2022/09/16 11:09:26;;;;;;;3.47;2.80;;;;;;;21.10;57.80;98573.53;4912486;29;20231;-90
2022/09/16 11:12:31;;;;;;;2.87;2.67;;;;;;;21.19;62.00;98579.84;4934391;29;20711;-91
2022/09/16 11:15:34;;;;;;;2.90;2.57;;;;;;;21.20;63.18;98577.94;4914478;29;20267;-90
2022/09/16 11:18:28;;;;;;;3.40;2.50;;;;;;;21.12;63.78;98574.03;4911804;29;20326;-89
2022/09/16 11:21:02;;;;;;;3.93;2.70;;;;;;;21.05;64.03;98571.75;4929453;29;20229;-90
2022/09/16 11:23:34;;;;;;;4.07;2.60;;;;;;;21.04;65.27;98585.69;4937592;29;20233;-89
2022/09/16 11:26:25;;;;;;;2.97;2.60;;;;;;;21.08;64.06;98576.59;4935146;29;20308;-88
2022/09/16 11:29:13;;;;;;;2.72;2.53;;;;;;;21.14;61.99;98571.03;4936443;29;20232;-90
2022/09/16 11:31:55;;;;;;;3.13;2.63;;;;;;;21.15;62.03;98573.44;4907897;29;20263;-89
2022/09/16 11:34:27;;;;;;;3.38;3.00;;;;;;;21.17;64.84;98567.69;4936545;29;20236;-90
2022/09/16 11:37:04;;;;;;;3.30;2.80;;;;;;;21.25;65.63;98566.91;4923149;29;20277;-89
2022/09/16 11:39:53;;;;;;;4.13;2.90;;;;;;;21.46;68.29;98566.00;4891289;29;20240;-89
2022/09/16 11:42:41;;;;;;;2.50;2.30;;;;;;;21.57;68.18;98557.53;4912270;29;20327;-90
2022/09/16 11:45:19;;;;;;;2.80;2.60;;;;;;;21.73;66.13;98555.97;4929563;29;20284;-90
2022/09/16 11:47:53;;;;;;;3.22;2.92;;;;;;;21.90;64.54;98548.63;4922310;29;20232;-89
2022/09/16 11:50:23;;;;;;;3.60;2.67;;;;;;;21.92;61.84;98545.59;4936542;29;20226;-90
2022/09/16 11:53:11;;;;;;;2.83;2.63;;;;;;;22.05;61.05;98549.31;4934565;29;20264;-89
2022/09/16 11:55:59;;;;;;;3.25;2.95;;;;;;;22.26;61.10;98540.16;4936876;29;20256;-89
2022/09/16 11:58:32;;;;;;;2.80;2.60;;;;;;;22.46;60.91;98543.34;4921466;29;20225;-89
2022/09/16 12:01:05;;;;;;;3.50;2.70;;;;;;;22.58;60.72;98538.03;4923279;29;20288;-89
2022/09/16 12:03:57;;;;;;;3.00;2.67;;;;;;;22.68;59.95;98524.81;4906179;29;20713;-89
2022/09/16 12:06:26;;;;;;;3.13;2.80;;;;;;;22.75;59.76;98527.91;4917189;29;20320;-90
2022/09/16 12:08:58;;;;;;;3.22;2.80;;;;;;;22.70;58.41;98524.53;4897954;29;20233;-88
2022/09/16 12:11:32;;;;;;;3.88;3.10;;;;;;;22.69;58.34;98514.72;4914452;29;20256;-89
2022/09/16 12:14:07;;;;;;;3.55;3.20;;;;;;;22.66;58.13;98513.44;4906441;29;20299;-89
2022/09/16 12:16:53;;;;;;;3.33;2.80;;;;;;;22.59;57.77;98510.41;4916916;29;20274;-89
2022/09/16 12:19:23;;;;;;;4.28;2.80;;;;;;;22.46;58.98;98500.47;4914123;29;20261;-90
2022/09/16 12:22:15;;;;;;;3.58;3.00;;;;;;;22.40;58.43;98499.84;4898207;29;20243;-89
2022/09/16 12:24:46;;;;;;;3.80;2.80;;;;;;;22.38;57.75;98501.31;4908450;29;20229;-89
2022/09/16 12:27:20;;;;;;;4.30;3.00;;;;;;;22.27;58.23;98509.00;4902656;29;20229;-89
2022/09/16 12:29:55;;;;;;;3.25;2.67;;;;;;;22.27;59.80;98505.47;4911455;29;20237;-89
2022/09/16 12:33:00;;;;;;;5.47;2.90;;;;;;;22.29;59.80;98495.06;4901566;29;20253;-90
2022/09/16 12:35:31;;;;;;;3.22;2.92;;;;;;;22.11;59.68;98485.31;4913332;29;20233;-90
2022/09/16 12:37:58;;;;;;;3.92;2.90;;;;;;;21.90;62.13;98474.19;4913169;29;20315;-90
2022/09/16 12:40:49;;;;;;;3.22;2.85;;;;;;;21.77;63.59;98483.34;4893991;29;20228;-89
2022/09/16 12:43:15;;;;;;;6.43;3.45;;;;;;;21.64;65.76;98485.09;4904326;29;20236;-89
2022/09/16 12:45:50;;;;;;;4.00;3.60;;;;;;;21.59;67.92;98487.97;4929256;29;20276;-89
2022/09/16 12:48:27;;;;;;;4.78;3.35;;;;;;;21.55;67.02;98497.91;4917041;29;20245;-89
2022/09/16 12:51:15;;;;;;;3.30;3.00;;;;;;;21.54;67.28;98490.84;4902832;29;20731;-90
2022/09/16 12:53:59;;;;;;;3.58;3.28;;;;;;;21.62;67.42;98490.06;4916767;29;20292;-89
2022/09/16 12:56:44;;;;;;;3.15;2.95;;;;;;;21.60;65.96;98483.34;4891066;29;20226;-89
2022/09/16 12:59:34;;;;;;;3.38;2.85;;;;;;;21.81;64.24;98487.03;4921055;29;20213;-90
2022/09/16 13:02:11;;;;;;;3.45;2.58;;;;;;;21.93;63.65;98488.00;4916503;29;20222;-89
2022/09/16 13:04:58;;;;;;;3.67;3.00;;;;;;;21.88;62.77;98487.38;4909132;29;20229;-89
2022/09/16 13:07:28;;;;;;;6.28;3.13;;;;;;;21.94;63.53;98494.28;4904818;29;20241;-89
2022/09/16 13:10:03;;;;;;;3.92;3.10;;;;;;;21.89;64.15;98478.84;4900305;29;20234;-89
2022/09/16 13:12:30;;;;;;;3.50;3.20;;;;;;;21.90;64.22;98469.53;4902357;29;20313;-89
2022/09/16 13:15:22;;;;;;;3.75;3.38;;;;;;;21.90;64.65;98471.47;4893101;29;20316;-89
2022/09/16 13:17:52;;;;;;;3.38;3.08;;;;;;;21.76;65.48;98468.91;4911960;29;20276;-89
2022/09/16 13:20:33;;;;;;;3.28;2.97;;;;;;;21.79;65.63;98464.75;4877316;29;20245;-89
2022/09/16 13:23:10;;;;;;;3.20;2.90;;;;;;;21.87;65.89;98467.47;4897240;29;20333;-90
2022/09/16 13:25:42;;;;;;;4.15;3.22;;;;;;;21.94;65.76;98470.53;4893959;29;20254;-90
2022/09/16 13:28:31;;;;;;;4.20;2.80;;;;;;;22.08;65.92;98475.81;4915205;29;20689;-89
2022/09/16 13:31:10;;;;;;;2.95;2.75;;;;;;;22.15;65.89;98489.78;4895989;29;20403;-90
2022/09/16 13:33:56;;;;;;;3.40;3.20;;;;;;;22.10;66.41;98486.41;4902178;29;20241;-89
2022/09/16 13:36:22;;;;;;;3.25;2.95;;;;;;;22.04;67.21;98485.78;4929270;29;20327;-90
2022/09/16 13:38:59;;;;;;;2.90;2.67;;;;;;;22.00;66.54;98470.38;4905408;29;20737;-90
2022/09/16 13:41:37;;;;;;;3.40;3.10;;;;;;;21.95;65.90;98480.31;4898172;29;20244;-90
2022/09/16 13:44:30;;;;;;;3.38;3.05;;;;;;;21.75;68.00;98470.03;4907930;29;20246;-90
2022/09/16 13:47:30;;;;;;;3.38;3.17;;;;;;;21.57;68.81;98464.88;4902616;29;20720;-89
2022/09/16 13:50:10;;;;;;;3.70;3.40;;;;;;;21.45;70.04;98462.81;4852572;29;20320;-89
2022/09/16 13:52:37;;;;;;;3.53;3.15;;;;;;;21.41;71.03;98446.28;4902402;29;20272;-89
2022/09/16 13:55:20;;;;;;;3.58;3.28;;;;;;;21.33;71.54;98449.78;4895595;29;20238;-89
2022/09/16 13:58:03;;;;;;;3.63;3.33;;;;;;;21.36;70.78;98446.44;4885602;29;20933;-90
2022/09/16 14:01:08;;;;;;;3.45;3.15;;;;;;;21.35;72.14;98454.94;4884083;29;20641;-90
2022/09/16 14:03:53;;;;;;;4.93;3.33;;;;;;;21.30;72.60;98464.06;4904187;29;20237;-89
2022/09/16 14:06:25;;;;;;;3.45;3.13;;;;;;;21.25;73.23;98457.94;4887166;29;20777;-90
2022/09/16 14:09:11;;;;;;;3.83;3.47;;;;;;;21.17;72.50;98456.00;4893662;29;20238;-89
2022/09/16 14:11:55;;;;;;;3.42;2.97;;;;;;;21.08;73.39;98451.31;4901023;29;20790;-89
2022/09/16 14:14:24;;;;;;;3.60;3.00;;;;;;;20.89;73.25;98445.34;4901074;29;20234;-90
2022/09/16 14:17:26;;;;;;;3.20;3.00;;;;;;;20.73;74.50;98451.50;4906672;29;20241;-90
2022/09/16 14:19:57;;;;;;;3.67;3.10;;;;;;;20.59;74.93;98449.69;4887324;29;20296;-90
2022/09/16 14:22:26;;;;;;;4.40;3.20;;;;;;;20.48;76.12;98453.00;4876268;29;20233;-89
2022/09/16 14:24:53;;;;;;;3.33;3.03;;;;;;;20.55;76.88;98459.59;4885513;29;20237;-90
2022/09/16 14:27:38;;;;;;;3.57;3.27;;;;;;;20.63;77.28;98449.84;4886865;29;20234;-90
2022/09/16 14:30:13;;;;;;;3.83;3.40;;;;;;;20.69;77.43;98451.34;4885346;29;20240;-89
2022/09/16 14:32:40;;;;;;;3.80;3.50;;;;;;;20.67;78.56;98450.81;4892640;29;20236;-89
2022/09/16 14:35:25;;;;;;;3.53;3.20;;;;;;;20.71;79.60;98442.88;4885409;29;20234;-89
2022/09/16 14:37:58;;;;;;;3.73;3.23;;;;;;;20.77;80.22;98447.84;4900887;29;20264;-89
2022/09/16 14:40:26;;;;;;;3.55;3.25;;;;;;;20.80;80.62;98432.81;4881151;29;20236;-89
2022/09/16 14:42:55;;;;;;;4.07;3.33;;;;;;;20.84;81.24;98433.78;4902837;29;20238;-90
2022/09/16 14:45:22;;;;;;;3.93;3.63;;;;;;;20.81;80.79;98431.69;4895623;29;20700;-89
2022/09/16 14:47:51;;;;;;;3.80;3.50;;;;;;;20.79;81.02;98434.72;4888145;29;20718;-89
2022/09/16 14:50:19;;;;;;;4.20;3.80;;;;;;;20.74;81.65;98434.88;4887770;29;20236;-89
2022/09/16 14:52:54;;;;;;;3.90;3.60;;;;;;;20.58;82.38;98437.19;4890792;29;20346;-90
2022/09/16 14:55:25;;;;;;;4.87;3.43;;;;;;;20.57;82.32;98429.34;4894155;29;20290;-89
2022/09/16 14:57:51;;;;;;;3.73;3.43;;;;;;;20.60;81.42;98421.38;4903789;29;20259;-90
2022/09/16 15:00:24;;;;;;;4.10;3.10;;;;;;;20.57;80.63;98413.03;4903098;29;20288;-90
2022/09/16 15:02:56;;;;;;;4.03;3.70;;;;;;;20.55;80.30;98407.09;4880265;29;20232;-90
2022/09/16 15:05:36;;;;;;;3.97;3.67;;;;;;;20.45;82.36;98412.81;4889972;29;20238;-90
2022/09/16 15:08:07;;;;;;;3.57;3.27;;;;;;;20.53;83.27;98412.06;4891102;29;20251;-90
2022/09/16 15:10:45;;;;;;;4.00;3.60;;;;;;;20.56;82.89;98400.53;4913828;29;20236;-90
2022/09/16 15:13:27;;;;;;;4.00;3.60;;;;;;;20.50;85.20;98391.72;4889446;29;20264;-90
2022/09/16 15:16:02;;;;;;;4.03;3.70;;;;;;;20.29;88.46;98393.34;4902732;29;20244;-90
2022/09/16 15:18:31;;;;;;;4.60;3.50;;;;;;;20.16;89.41;98396.94;4918627;29;20923;-90
2022/09/16 15:21:01;;;;;;;3.90;3.60;;;;;;;19.97;89.84;98399.88;4889369;29;20280;-89
2022/09/16 15:23:29;;;;;;;5.87;5.20;;;;;;;19.77;91.75;98403.91;4918625;29;20249;-90
2022/09/16 15:26:08;;;;;;;5.47;4.73;;;;;;;19.60;96.13;98382.03;4907011;29;20229;-90
2022/09/16 15:28:35;;;;;;;4.40;4.00;;;;;;;19.28;100.00;98377.59;4906519;29;20723;-90
2022/09/16 15:31:02;;;;;;;4.30;3.90;;;;;;;19.24;100.00;98392.09;4891235;29;20230;-90
2022/09/16 15:33:39;;;;;;;5.10;4.60;;;;;;;19.03;100.00;98383.59;4891467;29;20235;-90
2022/09/16 15:36:31;;;;;;;5.77;5.17;;;;;;;18.94;100.00;98388.13;4905523;29;20813;-90
2022/09/16 15:38:57;;;;;;;5.73;5.13;;;;;;;18.84;100.00;98396.50;4903289;29;20320;-90
2022/09/16 15:41:24;;;;;;;4.47;3.97;;;;;;;18.83;100.00;98392.16;4900979;29;20239;-90